Flight Track Log - Related Links

Times and Time Zones

All times are in EDT time to prevent confusion due to time zone crossing. See the RPA3379 flight status page for this flight to view local times or setup timezone preferences in your user account.

Time Position Orientation Groundspeed Altitude Reporting Facility
EDT Latitude Longitude Course Direction KTS MPH feet Rate Location/Type
Sat 02:28:51 PM 38.8667 -77.0500 165° South 144 166 1,500  Level Potomac TRACON
Sat 02:29:51 PM 38.9000 -77.0833 322° Northwest 189 217 2,800 2,033 Climbing Potomac TRACON
Sat 02:30:52 PM 38.9500 -77.1500 314° West 249 287 5,600 2,882 Climbing Potomac TRACON
Sat 02:31:00 PM 38.4643 -76.7029 171° South  Level FlightAware Approximate
Sat 02:31:58 PM 39.0167 -77.1167 21° North 270 311 8,900  Level Potomac TRACON
Sat 02:32:00 PM 38.3577 -76.6833 180° South  Level FlightAware Approximate
Sat 02:32:58 PM 39.0000 -77.0167 102° East 277 319 12,000  Level Potomac TRACON
Sat 02:33:00 PM 38.2386 -76.6721 169° South  Level FlightAware Approximate
Sat 02:33:58 PM 38.9500 -76.9333 128° Southeast 301 346 14,900  Level Potomac TRACON
Sat 02:34:00 PM 38.1196 -76.6621 165° South  Level FlightAware Approximate
Sat 02:36:02 PM 38.7858 -76.8514 159° South 348 400 18,900  Level Washington Center
Sat 02:37:03 PM 38.6925 -76.8019 158° South 358 412 19,000 50 Climbing Washington Center
Sat 02:38:01 PM 38.6033 -76.7525 157° South 371 427 19,000  Level Washington Center
Sat 02:39:02 PM 38.4975 -76.7192 166° South 385 443 19,000 885 Level Washington Center
Sat 02:40:03 PM 38.3869 -76.7042 174° South 397 457 20,800 1,966 Climbing Washington Center
Sat 02:41:01 PM 38.2725 -76.6867 173° South 407 468 22,900 2,034 Climbing Washington Center
Sat 02:42:01 PM 38.1558 -76.6717 174° South 412 474 24,800 1,736 Climbing Washington Center
Sat 02:43:02 PM 38.0372 -76.6569 174° South 424 488 26,400 1,488 Climbing Washington Center
Sat 02:44:02 PM 37.9183 -76.6500 177° South 429 494 27,800 1,240 Climbing Washington Center
Sat 02:45:03 PM 37.7931 -76.6667 186° South 435 501 28,900 1,140 Climbing Washington Center
Sat 02:46:03 PM 37.6697 -76.6831 186° South 446 513 30,100 1,017 Climbing Washington Center
Sat 02:47:01 PM 37.5444 -76.6997 186° South 451 519 30,900 958 Climbing Washington Center
Sat 02:48:02 PM 37.4169 -76.7242 189° South 463 533 32,000 1,082 Climbing Washington Center
Sat 02:49:03 PM 37.2978 -76.7719 198° South 463 533 33,100 1,008 Climbing Washington Center
Sat 02:50:01 PM 37.1886 -76.8197 199° South 442 509 34,000 454 Climbing Washington Center
Sat 02:51:02 PM 37.0778 -76.8650 198° South 429 494 34,000  Level Washington Center
Sat 02:52:02 PM 36.9708 -76.9100 199° South 419 482 34,000  Level Washington Center
Sat 02:53:03 PM 36.8619 -76.9547 198° South 419 482 34,000 149 Level Washington Center
Sat 02:54:03 PM 36.7550 -76.9994 199° South 414 476 34,300 661 Climbing Washington Center
Sat 02:55:01 PM 36.6481 -77.0442 199° South 409 471 35,300 857 Climbing Washington Center
Sat 02:56:02 PM 36.5389 -77.0886 198° South 409 471 36,000 347 Climbing Washington Center
Sat 02:57:02 PM 36.4342 -77.1333 199° South 409 471 36,000  Level Washington Center
Sat 02:58:03 PM 36.3272 -77.1750 197° South 404 465 36,000  Level Washington Center
Sat 02:59:01 PM 36.2264 -77.2142 197° South 404 465 36,000  Level Washington Center
Sat 03:00:03 PM 36.1111 -77.2658 200° South 397 457 36,000  Level Washington Center
Sat 03:01:03 PM 36.0039 -77.3072 197° South 397 457 36,000  Level Washington Center
Sat 03:02:01 PM 35.8950 -77.3483 197° South 408 470 36,000 353 Level Washington Center
Sat 03:03:02 PM 35.7878 -77.3947 199° South 408 470 36,700 893 Climbing Washington Center
Sat 03:04:02 PM 35.6969 -77.4719 215° Southwest 397 457 37,800 650 Climbing Washington Center
Sat 03:05:02 PM 35.6100 -77.5542 218° Southwest 397 457 38,000 99 Climbing Washington Center
Sat 03:06:03 PM 35.5272 -77.6364 219° Southwest 397 457 38,000  Level Washington Center
Sat 03:07:01 PM 35.4425 -77.7131 216° Southwest 392 451 38,000  Level Washington Center
Sat 03:08:02 PM 35.3575 -77.7925 217° Southwest 387 445 38,000  Level Washington Center
Sat 03:09:02 PM 35.2728 -77.8689 216° Southwest 387 445 38,000  Level Washington Center
Sat 03:10:03 PM 35.1983 -77.9406 218° Southwest 387 445 38,000  Level Washington Center
Sat 03:11:01 PM 35.1153 -78.0194 218° Southwest 387 445 38,000  Level Washington Center
Sat 03:12:02 PM 35.0303 -78.0981 217° Southwest 382 440 38,000  Level Washington Center
Sat 03:13:03 PM 34.9494 -78.1742 218° Southwest 382 440 38,000  Level Washington Center
Sat 03:15:31 PM 34.7442 -78.3753 219° Southwest 380 437 38,000  Level Jacksonville Center
Sat 03:16:31 PM 34.6492 -78.4561 215° Southwest 385 443 38,000  Level Jacksonville Center
Sat 03:17:31 PM 34.5622 -78.5336 216° Southwest 385 443 38,000  Level Jacksonville Center
Sat 03:18:31 PM 34.4897 -78.6078 220° Southwest 385 443 38,000  Level Jacksonville Center
Sat 03:19:31 PM 34.4028 -78.6900 218° Southwest 385 443 38,000  Level Jacksonville Center
Sat 03:20:31 PM 34.3178 -78.7669 217° Southwest 391 450 38,000  Level Jacksonville Center
Sat 03:21:31 PM 34.2325 -78.8439 217° Southwest 391 450 38,000  Level Jacksonville Center
Sat 03:22:31 PM 34.1472 -78.9206 217° Southwest 391 450 38,000  Level Jacksonville Center
Sat 03:23:31 PM 34.0642 -78.9947 216° Southwest 386 444 38,000  Level Jacksonville Center
Sat 03:24:31 PM 33.9747 -79.0736 216° Southwest 386 444 38,000  Level Jacksonville Center
Sat 03:25:31 PM 33.8894 -79.1500 217° Southwest 391 450 38,000  Level Jacksonville Center
Sat 03:26:31 PM 33.7956 -79.2189 211° Southwest 391 450 38,000  Level Jacksonville Center
Sat 03:27:31 PM 33.6933 -79.2931 211° Southwest 391 450 38,000  Level Jacksonville Center
Sat 03:28:31 PM 33.6108 -79.3339 202° Southwest 378 435 38,000  Level Jacksonville Center
Sat 03:29:31 PM 33.5186 -79.3925 208° Southwest 378 435 38,000  Level Jacksonville Center
Sat 03:30:31 PM 33.4244 -79.4533 208° Southwest 385 443 38,000  Level Jacksonville Center
Sat 03:31:31 PM 33.3319 -79.5117 208° Southwest 385 443 38,000  Level Jacksonville Center
Sat 03:32:31 PM 33.2375 -79.5697 207° Southwest 385 443 38,000 -50 Level Jacksonville Center
Sat 03:33:31 PM 33.1453 -79.6278 208° Southwest 385 443 37,900  Descending Jacksonville Center
Sat 03:34:31 PM 33.0508 -79.6883 208° Southwest 385 443 38,000  Climbing Jacksonville Center
Sat 03:35:31 PM 32.9542 -79.7461 207° Southwest 385 443 37,900  Descending Jacksonville Center
Sat 03:36:31 PM 32.8617 -79.8061 209° Southwest 385 443 38,000 50 Climbing Jacksonville Center
Sat 03:37:31 PM 32.7669 -79.8639 207° Southwest 385 443 38,000  Level Jacksonville Center
Sat 03:38:31 PM 32.6703 -79.9239 208° Southwest 385 443 38,000  Level Jacksonville Center
Sat 03:39:31 PM 32.5778 -79.9836 209° Southwest 385 443 38,000  Level Jacksonville Center
Sat 03:40:31 PM 32.4789 -80.0433 207° Southwest 385 443 38,000  Level Jacksonville Center
Sat 03:41:31 PM 32.3864 -80.1003 207° Southwest 385 443 38,000  Level Jacksonville Center
Sat 03:42:31 PM 32.2917 -80.1622 209° Southwest 385 443 38,000  Level Jacksonville Center
Sat 03:43:31 PM 32.1947 -80.2217 207° Southwest 390 449 38,000  Level Jacksonville Center
Sat 03:44:31 PM 32.0978 -80.2783 206° Southwest 390 449 38,000  Level Jacksonville Center
Sat 03:45:31 PM 32.0136 -80.3519 217° Southwest 390 449 38,000  Level Jacksonville Center
Sat 03:46:31 PM 31.9317 -80.4300 219° Southwest 390 449 38,000  Level Jacksonville Center
Sat 03:47:31 PM 31.8458 -80.5203 222° Southwest 384 442 38,000  Level Jacksonville Center
Sat 03:48:31 PM 31.7617 -80.5933 216° Southwest 389 448 38,000  Level Jacksonville Center
Sat 03:49:31 PM 31.6833 -80.6611 216° Southwest 389 448 38,000  Level Jacksonville Center
Sat 03:50:31 PM 31.5969 -80.7364 217° Southwest 389 448 38,000  Level Jacksonville Center
Sat 03:51:31 PM 31.5000 -80.8092 213° Southwest 382 440 38,000  Level Jacksonville Center
Sat 03:52:31 PM 31.4197 -80.8719 214° Southwest 387 445 38,000  Level Jacksonville Center
Sat 03:53:31 PM 31.3289 -80.9444 214° Southwest 395 455 38,000  Level Jacksonville Center
Sat 03:54:31 PM 31.2339 -81.0047 208° Southwest 395 455 38,000  Level Jacksonville Center
Sat 03:55:31 PM 31.1300 -81.0433 198° South 389 448 38,000  Level Jacksonville Center
Sat 03:56:31 PM 31.0239 -81.0694 192° South 389 448 38,000  Level Jacksonville Center
Sat 03:57:31 PM 30.9156 -81.0933 191° South 389 448 38,000  Level Jacksonville Center
Sat 03:58:31 PM 30.8075 -81.1172 191° South 394 453 38,000 -50 Level Jacksonville Center
Sat 03:59:31 PM 30.6972 -81.1411 191° South 399 459 37,900  Descending Jacksonville Center
Sat 04:00:31 PM 30.5844 -81.1528 185° South 404 465 38,000 50 Climbing Jacksonville Center
Sat 04:01:31 PM 30.4717 -81.1475 178° South 404 465 38,000  Level Jacksonville Center
Sat 04:02:31 PM 30.3611 -81.1447 179° South 404 465 38,000  Level Jacksonville Center
Sat 04:03:31 PM 30.2461 -81.1422 179° South 404 465 38,000  Level Jacksonville Center
Sat 04:04:31 PM 30.1356 -81.1392 179° South 404 465 38,000 -250 Level Jacksonville Center
Sat 04:05:31 PM 30.0206 -81.1367 179° South 404 465 37,500 -750 Descending Jacksonville Center
Sat 04:06:31 PM 29.9058 -81.1339 179° South 404 465 36,500 -800 Descending Jacksonville Center
Sat 04:07:31 PM 29.7908 -81.1289 178° South 404 465 35,900 -850 Descending Jacksonville Center
Sat 04:08:31 PM 29.6719 -81.1261 179° South 416 479 34,800 -950 Descending Jacksonville Center
Sat 04:09:31 PM 29.5425 -81.1236 179° South 422 486 34,000 -264 Descending Jacksonville Center
Sat 04:11:33 PM 29.3100 -81.1111 177° South 423 487 34,000  Level Miami Center
Sat 04:12:33 PM 29.2011 -81.0475 153° Southeast 428 493 34,000  Level Miami Center
Sat 04:13:33 PM 29.1011 -80.9722 147° Southeast 423 487 34,000  Level Miami Center
Sat 04:14:33 PM 28.9992 -80.8950 146° Southeast 428 493 34,000  Level Miami Center
Sat 04:15:33 PM 28.8867 -80.8103 147° Southeast 449 517 34,000  Level Miami Center
Sat 04:16:33 PM 28.7844 -80.7381 148° Southeast 449 517 34,000 -450 Level Miami Center
Sat 04:17:33 PM 28.6800 -80.6633 148° Southeast 449 517 33,100 -1,400 Descending Miami Center
Sat 04:18:33 PM 28.5858 -80.5939 147° Southeast 449 517 31,200 -1,900 Descending Miami Center
Sat 04:19:33 PM 28.4833 -80.5222 148° Southeast 439 505 29,300 -2,000 Descending Miami Center
Sat 04:20:33 PM 28.3750 -80.4431 147° Southeast 422 486 27,200 -1,950 Descending Miami Center
Sat 04:21:33 PM 28.2739 -80.3950 157° South 406 467 25,400 -1,750 Descending Miami Center
Sat 04:22:33 PM 28.1703 -80.3658 166° South 387 445 23,700 -1,587 Descending Miami Center
Sat 04:23:34 PM 28.0811 -80.3419 167° South 373 429 22,200 -1,500 Descending Miami Center
Sat 04:24:33 PM 27.9836 -80.3156 167° South 373 429 20,700 -1,664 Descending Miami Center
Sat 04:25:33 PM 27.8778 -80.2864 166° South 361 415 18,900 -1,700 Descending Miami Center
Sat 04:26:33 PM 27.7864 -80.2625 167° South 350 403 17,300 -1,400 Descending Miami Center
Sat 04:27:33 PM 27.6972 -80.2389 167° South 338 389 16,100 -1,300 Descending Miami Center
Sat 04:28:33 PM 27.6164 -80.2175 167° South 332 382 14,700 -1,550 Descending Miami Center
Sat 04:29:33 PM 27.5189 -80.1936 168° South 332 382 13,000 -1,550 Descending Miami Center
Sat 04:30:33 PM 27.4297 -80.1678 166° South 332 382 11,600 -1,000 Descending Miami Center
Sat 04:31:33 PM 27.3511 -80.1303 157° South 324 373 11,000 -800 Descending Miami Center
Sat 04:32:33 PM 27.2789 -80.0933 156° South 319 367 10,000 -1,350 Descending Miami Center
Sat 04:33:33 PM 27.1997 -80.0889 177° South 297 342 8,300 -2,350 Descending Miami Center
Sat 04:34:33 PM 27.1161 -80.0933 183° South 284 327 5,300 -2,650 Descending Miami Center
Sat 04:35:33 PM 27.0367 -80.0867 176° South 284 327 3,000 -1,600 Descending Miami Center
Sat 04:36:33 PM 26.9642 -80.0706 169° South 274 315 2,100 -500 Descending Miami Center
Sat 04:37:33 PM 26.9081 -80.0481 160° South 257 296 2,000 -50 Descending Miami Center
Sat 04:38:33 PM 26.8397 -80.0300 167° South 252 290 2,000  Level Miami Center

Login

Don't have an account? Register now (free) for customized features, flight alerts, and more!